sensor_id;sensor_type;location;lat;lon;timestamp;P1;durP1;ratioP1;P2;durP2;ratioP2
54037;SDS011;39954;48.844;9.726;2024-01-15T00:00:19;266.05;;;32.58;;
54037;SDS011;39954;48.844;9.726;2024-01-15T00:01:21;259.30;;;32.45;;
54037;SDS011;39954;48.844;9.726;2024-01-15T00:02:26;267.50;;;35.10;;
54037;SDS011;39954;48.844;9.726;2024-01-15T00:03:29;269.75;;;36.60;;
54037;SDS011;39954;48.844;9.726;2024-01-15T00:04:35;287.13;;;37.55;;
54037;SDS011;39954;48.844;9.726;2024-01-15T00:05:39;275.70;;;37.47;;
54037;SDS011;39954;48.844;9.726;2024-01-15T00:06:43;262.30;;;34.83;;
54037;SDS011;39954;48.844;9.726;2024-01-15T00:07:46;264.25;;;35.90;;
54037;SDS011;39954;48.844;9.726;2024-01-15T00:08:53;276.10;;;35.80;;
54037;SDS011;39954;48.844;9.726;2024-01-15T00:09:56;318.38;;;38.63;;
54037;SDS011;39954;48.844;9.726;2024-01-15T00:11:01;289.10;;;35.30;;
54037;SDS011;39954;48.844;9.726;2024-01-15T00:12:03;295.42;;;35.42;;
54037;SDS011;39954;48.844;9.726;2024-01-15T00:13:09;290.80;;;36.53;;
54037;SDS011;39954;48.844;9.726;2024-01-15T00:14:11;265.10;;;34.45;;
54037;SDS011;39954;48.844;9.726;2024-01-15T00:15:22;261.85;;;34.00;;
54037;SDS011;39954;48.844;9.726;2024-01-15T00:16:24;279.55;;;34.72;;
54037;SDS011;39954;48.844;9.726;2024-01-15T00:17:29;298.50;;;37.10;;
54037;SDS011;39954;48.844;9.726;2024-01-15T00:18:31;312.83;;;37.45;;
54037;SDS011;39954;48.844;9.726;2024-01-15T00:19:36;308.30;;;38.25;;
54037;SDS011;39954;48.844;9.726;2024-01-15T00:20:39;271.27;;;35.50;;
54037;SDS011;39954;48.844;9.726;2024-01-15T00:21:44;247.18;;;33.00;;
54037;SDS011;39954;48.844;9.726;2024-01-15T00:22:46;255.30;;;33.00;;
54037;SDS011;39954;48.844;9.726;2024-01-15T00:23:49;247.73;;;33.08;;
54037;SDS011;39954;48.844;9.726;2024-01-15T00:24:56;265.92;;;35.05;;
54037;SDS011;39954;48.844;9.726;2024-01-15T00:25:58;243.32;;;31.67;;
54037;SDS011;39954;48.844;9.726;2024-01-15T00:27:03;258.00;;;32.67;;
54037;SDS011;39954;48.844;9.726;2024-01-15T00:28:06;210.63;;;30.35;;
54037;SDS011;39954;48.844;9.726;2024-01-15T00:29:11;225.07;;;31.00;;
54037;SDS011;39954;48.844;9.726;2024-01-15T00:30:13;278.23;;;35.20;;
54037;SDS011;39954;48.844;9.726;2024-01-15T00:31:20;213.68;;;30.50;;
54037;SDS011;39954;48.844;9.726;2024-01-15T00:32:22;282.52;;;34.80;;
54037;SDS011;39954;48.844;9.726;2024-01-15T00:33:27;360.83;;;39.13;;
54037;SDS011;39954;48.844;9.726;2024-01-15T00:34:30;266.60;;;35.15;;
54037;SDS011;39954;48.844;9.726;2024-01-15T00:35:35;255.48;;;33.65;;
54037;SDS011;39954;48.844;9.726;2024-01-15T00:36:37;377.17;;;42.17;;
54037;SDS011;39954;48.844;9.726;2024-01-15T00:37:42;315.65;;;36.63;;
54037;SDS011;39954;48.844;9.726;2024-01-15T00:38:44;228.80;;;31.55;;
54037;SDS011;39954;48.844;9.726;2024-01-15T00:39:49;283.80;;;35.05;;
54037;SDS011;39954;48.844;9.726;2024-01-15T00:40:55;195.00;;;29.30;;
54037;SDS011;39954;48.844;9.726;2024-01-15T00:41:59;250.27;;;32.90;;
54037;SDS011;39954;48.844;9.726;2024-01-15T00:43:02;267.15;;;32.97;;
54037;SDS011;39954;48.844;9.726;2024-01-15T00:44:09;196.75;;;29.25;;
54037;SDS011;39954;48.844;9.726;2024-01-15T00:45:11;222.75;;;30.42;;
54037;SDS011;39954;48.844;9.726;2024-01-15T00:46:16;265.45;;;33.22;;
54037;SDS011;39954;48.844;9.726;2024-01-15T00:47:19;234.10;;;30.42;;
54037;SDS011;39954;48.844;9.726;2024-01-15T00:48:23;224.00;;;29.45;;
54037;SDS011;39954;48.844;9.726;2024-01-15T00:49:26;271.35;;;32.45;;
54037;SDS011;39954;48.844;9.726;2024-01-15T00:50:31;270.35;;;32.65;;
54037;SDS011;39954;48.844;9.726;2024-01-15T00:51:34;296.58;;;34.30;;
54037;SDS011;39954;48.844;9.726;2024-01-15T00:52:38;296.25;;;33.40;;
54037;SDS011;39954;48.844;9.726;2024-01-15T00:53:41;239.35;;;29.85;;
54037;SDS011;39954;48.844;9.726;2024-01-15T00:54:43;309.70;;;34.30;;
54037;SDS011;39954;48.844;9.726;2024-01-15T00:55:48;198.48;;;28.10;;
54037;SDS011;39954;48.844;9.726;2024-01-15T00:56:55;233.88;;;30.25;;
54037;SDS011;39954;48.844;9.726;2024-01-15T00:58:00;208.40;;;28.23;;
54037;SDS011;39954;48.844;9.726;2024-01-15T00:59:02;238.68;;;29.50;;
54037;SDS011;39954;48.844;9.726;2024-01-15T01:00:07;308.85;;;35.72;;
54037;SDS011;39954;48.844;9.726;2024-01-15T01:01:10;299.40;;;34.28;;
54037;SDS011;39954;48.844;9.726;2024-01-15T01:02:15;188.27;;;26.35;;
54037;SDS011;39954;48.844;9.726;2024-01-15T01:03:18;173.68;;;25.02;;
54037;SDS011;39954;48.844;9.726;2024-01-15T01:04:23;284.88;;;31.35;;
54037;SDS011;39954;48.844;9.726;2024-01-15T01:05:25;211.27;;;26.40;;
54037;SDS011;39954;48.844;9.726;2024-01-15T01:06:32;250.02;;;31.98;;
54037;SDS011;39954;48.844;9.726;2024-01-15T01:07:35;307.00;;;33.40;;
54037;SDS011;39954;48.844;9.726;2024-01-15T01:08:40;248.90;;;32.65;;
54037;SDS011;39954;48.844;9.726;2024-01-15T01:09:42;261.77;;;30.95;;
54037;SDS011;39954;48.844;9.726;2024-01-15T01:10:47;208.70;;;29.05;;
54037;SDS011;39954;48.844;9.726;2024-01-15T01:11:49;168.93;;;24.90;;
54037;SDS011;39954;48.844;9.726;2024-01-15T01:12:57;189.32;;;27.25;;
54037;SDS011;39954;48.844;9.726;2024-01-15T01:13:59;261.63;;;29.88;;
54037;SDS011;39954;48.844;9.726;2024-01-15T01:15:05;229.80;;;28.83;;
54037;SDS011;39954;48.844;9.726;2024-01-15T01:16:07;229.77;;;28.10;;
54037;SDS011;39954;48.844;9.726;2024-01-15T01:17:12;195.18;;;25.80;;
54037;SDS011;39954;48.844;9.726;2024-01-15T01:18:15;276.05;;;32.72;;
54037;SDS011;39954;48.844;9.726;2024-01-15T01:19:20;288.67;;;30.77;;
54037;SDS011;39954;48.844;9.726;2024-01-15T01:20:22;200.15;;;28.08;;
54037;SDS011;39954;48.844;9.726;2024-01-15T01:21:27;245.73;;;28.67;;
54037;SDS011;39954;48.844;9.726;2024-01-15T01:22:30;274.75;;;30.35;;
54037;SDS011;39954;48.844;9.726;2024-01-15T01:23:34;277.33;;;30.63;;
54037;SDS011;39954;48.844;9.726;2024-01-15T01:24:37;333.48;;;34.22;;
54037;SDS011;39954;48.844;9.726;2024-01-15T01:25:41;270.65;;;31.13;;
54037;SDS011;39954;48.844;9.726;2024-01-15T01:26:44;264.67;;;30.70;;
54037;SDS011;39954;48.844;9.726;2024-01-15T01:27:50;267.92;;;28.85;;
54037;SDS011;39954;48.844;9.726;2024-01-15T01:28:56;241.10;;;27.13;;
54037;SDS011;39954;48.844;9.726;2024-01-15T01:30:04;241.65;;;28.45;;
54037;SDS011;39954;48.844;9.726;2024-01-15T01:31:08;226.70;;;25.67;;
54037;SDS011;39954;48.844;9.726;2024-01-15T01:32:13;234.23;;;30.83;;
54037;SDS011;39954;48.844;9.726;2024-01-15T01:33:15;233.73;;;26.60;;
54037;SDS011;39954;48.844;9.726;2024-01-15T01:34:20;178.77;;;24.08;;
54037;SDS011;39954;48.844;9.726;2024-01-15T01:35:22;165.13;;;23.23;;
54037;SDS011;39954;48.844;9.726;2024-01-15T01:36:27;260.60;;;26.67;;
54037;SDS011;39954;48.844;9.726;2024-01-15T01:37:29;192.30;;;25.17;;
54037;SDS011;39954;48.844;9.726;2024-01-15T01:38:35;248.80;;;27.75;;
54037;SDS011;39954;48.844;9.726;2024-01-15T01:39:38;271.65;;;29.92;;
54037;SDS011;39954;48.844;9.726;2024-01-15T01:40:43;244.85;;;29.17;;
54037;SDS011;39954;48.844;9.726;2024-01-15T01:41:47;239.10;;;26.02;;
54037;SDS011;39954;48.844;9.726;2024-01-15T01:42:51;265.10;;;27.73;;
54037;SDS011;39954;48.844;9.726;2024-01-15T01:43:57;182.32;;;22.65;;
54037;SDS011;39954;48.844;9.726;2024-01-15T01:45:02;240.23;;;27.70;;
54037;SDS011;39954;48.844;9.726;2024-01-15T01:46:05;193.75;;;24.17;;
54037;SDS011;39954;48.844;9.726;2024-01-15T01:47:10;184.52;;;22.75;;
54037;SDS011;39954;48.844;9.726;2024-01-15T01:48:12;256.35;;;26.95;;
54037;SDS011;39954;48.844;9.726;2024-01-15T01:49:18;204.65;;;24.33;;
54037;SDS011;39954;48.844;9.726;2024-01-15T01:50:20;193.82;;;24.92;;
54037;SDS011;39954;48.844;9.726;2024-01-15T01:51:25;206.90;;;26.45;;
54037;SDS011;39954;48.844;9.726;2024-01-15T01:52:28;186.70;;;22.83;;
54037;SDS011;39954;48.844;9.726;2024-01-15T01:53:33;220.65;;;24.10;;
54037;SDS011;39954;48.844;9.726;2024-01-15T01:54:37;309.42;;;31.98;;
54037;SDS011;39954;48.844;9.726;2024-01-15T01:55:44;238.35;;;25.90;;
54037;SDS011;39954;48.844;9.726;2024-01-15T01:56:47;209.38;;;24.58;;
54037;SDS011;39954;48.844;9.726;2024-01-15T01:57:54;266.15;;;28.88;;
54037;SDS011;39954;48.844;9.726;2024-01-15T01:59:00;191.57;;;24.05;;
54037;SDS011;39954;48.844;9.726;2024-01-15T02:00:06;206.30;;;23.60;;
54037;SDS011;39954;48.844;9.726;2024-01-15T02:01:09;152.45;;;20.77;;
54037;SDS011;39954;48.844;9.726;2024-01-15T02:02:16;197.20;;;24.45;;
54037;SDS011;39954;48.844;9.726;2024-01-15T02:03:18;180.77;;;24.23;;
54037;SDS011;39954;48.844;9.726;2024-01-15T02:04:24;144.07;;;22.50;;
54037;SDS011;39954;48.844;9.726;2024-01-15T02:05:28;161.80;;;22.17;;
54037;SDS011;39954;48.844;9.726;2024-01-15T02:06:34;175.23;;;21.95;;
54037;SDS011;39954;48.844;9.726;2024-01-15T02:07:37;255.88;;;27.40;;
54037;SDS011;39954;48.844;9.726;2024-01-15T02:08:43;280.70;;;27.90;;
54037;SDS011;39954;48.844;9.726;2024-01-15T02:09:45;239.63;;;28.02;;
54037;SDS011;39954;48.844;9.726;2024-01-15T02:10:50;236.18;;;25.20;;
54037;SDS011;39954;48.844;9.726;2024-01-15T02:11:53;254.77;;;28.02;;
54037;SDS011;39954;48.844;9.726;2024-01-15T02:12:57;226.27;;;25.63;;
54037;SDS011;39954;48.844;9.726;2024-01-15T02:14:03;189.43;;;22.63;;
54037;SDS011;39954;48.844;9.726;2024-01-15T02:15:08;386.98;;;37.63;;
54037;SDS011;39954;48.844;9.726;2024-01-15T02:16:12;271.73;;;26.98;;
54037;SDS011;39954;48.844;9.726;2024-01-15T02:17:17;213.70;;;25.10;;
54037;SDS011;39954;48.844;9.726;2024-01-15T02:18:19;310.13;;;30.08;;
54037;SDS011;39954;48.844;9.726;2024-01-15T02:19:25;191.77;;;23.00;;
54037;SDS011;39954;48.844;9.726;2024-01-15T02:20:27;170.90;;;22.02;;
54037;SDS011;39954;48.844;9.726;2024-01-15T02:21:32;301.63;;;30.20;;
54037;SDS011;39954;48.844;9.726;2024-01-15T02:22:34;238.73;;;27.17;;
54037;SDS011;39954;48.844;9.726;2024-01-15T02:23:42;253.18;;;26.10;;
54037;SDS011;39954;48.844;9.726;2024-01-15T02:24:44;424.20;;;37.55;;
54037;SDS011;39954;48.844;9.726;2024-01-15T02:25:49;249.23;;;26.20;;
54037;SDS011;39954;48.844;9.726;2024-01-15T02:26:51;216.07;;;25.30;;
54037;SDS011;39954;48.844;9.726;2024-01-15T02:27:56;168.02;;;22.42;;
54037;SDS011;39954;48.844;9.726;2024-01-15T02:28:59;509.77;;;41.70;;
54037;SDS011;39954;48.844;9.726;2024-01-15T02:30:01;206.07;;;25.17;;
54037;SDS011;39954;48.844;9.726;2024-01-15T02:31:06;173.95;;;22.73;;
54037;SDS011;39954;48.844;9.726;2024-01-15T02:32:09;169.45;;;22.63;;
54037;SDS011;39954;48.844;9.726;2024-01-15T02:33:14;263.67;;;25.67;;
54037;SDS011;39954;48.844;9.726;2024-01-15T02:34:16;185.35;;;22.70;;
54037;SDS011;39954;48.844;9.726;2024-01-15T02:35:21;188.25;;;21.88;;
54037;SDS011;39954;48.844;9.726;2024-01-15T02:36:23;212.48;;;23.20;;
54037;SDS011;39954;48.844;9.726;2024-01-15T02:37:28;192.48;;;22.17;;
54037;SDS011;39954;48.844;9.726;2024-01-15T02:38:30;147.90;;;20.08;;
54037;SDS011;39954;48.844;9.726;2024-01-15T02:39:38;160.65;;;21.98;;
54037;SDS011;39954;48.844;9.726;2024-01-15T02:40:40;417.20;;;38.95;;
54037;SDS011;39954;48.844;9.726;2024-01-15T02:41:45;241.93;;;24.92;;
54037;SDS011;39954;48.844;9.726;2024-01-15T02:42:47;247.23;;;26.25;;
54037;SDS011;39954;48.844;9.726;2024-01-15T02:43:52;326.50;;;30.70;;
54037;SDS011;39954;48.844;9.726;2024-01-15T02:44:54;240.50;;;26.83;;
54037;SDS011;39954;48.844;9.726;2024-01-15T02:45:59;214.48;;;24.63;;
54037;SDS011;39954;48.844;9.726;2024-01-15T02:47:02;183.15;;;23.45;;
54037;SDS011;39954;48.844;9.726;2024-01-15T02:48:07;217.73;;;23.23;;
54037;SDS011;39954;48.844;9.726;2024-01-15T02:49:09;249.13;;;26.20;;
54037;SDS011;39954;48.844;9.726;2024-01-15T02:50:14;224.65;;;23.77;;
54037;SDS011;39954;48.844;9.726;2024-01-15T02:51:17;183.90;;;22.23;;
54037;SDS011;39954;48.844;9.726;2024-01-15T02:52:22;331.48;;;32.83;;
54037;SDS011;39954;48.844;9.726;2024-01-15T02:53:24;234.80;;;26.42;;
54037;SDS011;39954;48.844;9.726;2024-01-15T02:54:29;184.02;;;22.40;;
54037;SDS011;39954;48.844;9.726;2024-01-15T02:55:34;237.45;;;24.90;;
54037;SDS011;39954;48.844;9.726;2024-01-15T02:56:38;180.02;;;20.55;;
54037;SDS011;39954;48.844;9.726;2024-01-15T02:57:41;215.48;;;24.40;;
54037;SDS011;39954;48.844;9.726;2024-01-15T02:58:43;406.40;;;36.92;;
54037;SDS011;39954;48.844;9.726;2024-01-15T02:59:48;258.08;;;27.83;;
54037;SDS011;39954;48.844;9.726;2024-01-15T03:00:51;294.75;;;28.88;;
54037;SDS011;39954;48.844;9.726;2024-01-15T03:01:53;300.35;;;30.50;;
54037;SDS011;39954;48.844;9.726;2024-01-15T03:02:58;255.05;;;26.13;;
54037;SDS011;39954;48.844;9.726;2024-01-15T03:04:00;260.60;;;25.17;;
54037;SDS011;39954;48.844;9.726;2024-01-15T03:05:06;164.32;;;21.02;;
54037;SDS011;39954;48.844;9.726;2024-01-15T03:06:08;193.35;;;23.35;;
54037;SDS011;39954;48.844;9.726;2024-01-15T03:07:14;146.18;;;19.60;;
54037;SDS011;39954;48.844;9.726;2024-01-15T03:08:17;213.05;;;25.60;;
54037;SDS011;39954;48.844;9.726;2024-01-15T03:09:19;228.48;;;24.08;;
54037;SDS011;39954;48.844;9.726;2024-01-15T03:10:24;180.32;;;19.88;;
54037;SDS011;39954;48.844;9.726;2024-01-15T03:11:29;170.68;;;19.48;;
54037;SDS011;39954;48.844;9.726;2024-01-15T03:12:34;152.60;;;19.13;;
54037;SDS011;39954;48.844;9.726;2024-01-15T03:13:39;169.77;;;20.33;;
54037;SDS011;39954;48.844;9.726;2024-01-15T03:14:44;221.02;;;25.20;;
54037;SDS011;39954;48.844;9.726;2024-01-15T03:15:46;220.75;;;26.92;;
54037;SDS011;39954;48.844;9.726;2024-01-15T03:16:51;228.32;;;26.10;;
54037;SDS011;39954;48.844;9.726;2024-01-15T03:17:54;233.00;;;24.35;;
54037;SDS011;39954;48.844;9.726;2024-01-15T03:18:56;219.65;;;23.92;;
54037;SDS011;39954;48.844;9.726;2024-01-15T03:20:01;213.23;;;23.63;;
54037;SDS011;39954;48.844;9.726;2024-01-15T03:21:05;131.40;;;19.08;;
54037;SDS011;39954;48.844;9.726;2024-01-15T03:22:10;144.68;;;20.23;;
54037;SDS011;39954;48.844;9.726;2024-01-15T03:23:12;180.48;;;21.17;;
54037;SDS011;39954;48.844;9.726;2024-01-15T03:24:17;257.23;;;26.40;;
54037;SDS011;39954;48.844;9.726;2024-01-15T03:25:20;193.00;;;21.98;;
54037;SDS011;39954;48.844;9.726;2024-01-15T03:26:25;185.73;;;20.60;;
54037;SDS011;39954;48.844;9.726;2024-01-15T03:27:30;182.05;;;20.42;;
54037;SDS011;39954;48.844;9.726;2024-01-15T03:28:35;201.68;;;22.58;;
54037;SDS011;39954;48.844;9.726;2024-01-15T03:29:37;161.13;;;19.23;;
54037;SDS011;39954;48.844;9.726;2024-01-15T03:30:43;247.18;;;24.02;;
54037;SDS011;39954;48.844;9.726;2024-01-15T03:31:46;238.70;;;20.52;;
54037;SDS011;39954;48.844;9.726;2024-01-15T03:32:51;424.13;;;36.28;;
54037;SDS011;39954;48.844;9.726;2024-01-15T03:33:53;327.48;;;30.13;;
54037;SDS011;39954;48.844;9.726;2024-01-15T03:34:58;319.60;;;30.73;;
54037;SDS011;39954;48.844;9.726;2024-01-15T03:36:00;232.32;;;23.60;;
54037;SDS011;39954;48.844;9.726;2024-01-15T03:37:05;263.95;;;25.13;;
54037;SDS011;39954;48.844;9.726;2024-01-15T03:38:08;213.23;;;22.33;;
54037;SDS011;39954;48.844;9.726;2024-01-15T03:39:12;212.68;;;21.15;;
54037;SDS011;39954;48.844;9.726;2024-01-15T03:40:15;277.00;;;26.40;;
54037;SDS011;39954;48.844;9.726;2024-01-15T03:41:23;448.15;;;38.33;;
54037;SDS011;39954;48.844;9.726;2024-01-15T03:42:26;309.02;;;27.38;;
54037;SDS011;39954;48.844;9.726;2024-01-15T03:43:33;243.95;;;25.30;;
54037;SDS011;39954;48.844;9.726;2024-01-15T03:44:35;162.60;;;19.17;;
54037;SDS011;39954;48.844;9.726;2024-01-15T03:45:40;211.80;;;21.83;;
54037;SDS011;39954;48.844;9.726;2024-01-15T03:46:42;181.75;;;20.20;;
54037;SDS011;39954;48.844;9.726;2024-01-15T03:47:47;217.20;;;22.42;;
54037;SDS011;39954;48.844;9.726;2024-01-15T03:48:50;406.67;;;36.03;;
54037;SDS011;39954;48.844;9.726;2024-01-15T03:49:55;340.38;;;31.92;;
54037;SDS011;39954;48.844;9.726;2024-01-15T03:50:57;230.10;;;23.40;;
54037;SDS011;39954;48.844;9.726;2024-01-15T03:52:02;209.00;;;23.50;;
54037;SDS011;39954;48.844;9.726;2024-01-15T03:53:05;246.70;;;25.23;;
54037;SDS011;39954;48.844;9.726;2024-01-15T03:54:09;200.90;;;21.30;;
54037;SDS011;39954;48.844;9.726;2024-01-15T03:55:12;192.15;;;21.80;;
54037;SDS011;39954;48.844;9.726;2024-01-15T03:56:16;165.02;;;19.42;;
54037;SDS011;39954;48.844;9.726;2024-01-15T03:57:19;156.00;;;19.25;;
54037;SDS011;39954;48.844;9.726;2024-01-15T03:58:23;207.73;;;21.75;;
54037;SDS011;39954;48.844;9.726;2024-01-15T03:59:28;163.18;;;20.60;;
54037;SDS011;39954;48.844;9.726;2024-01-15T04:00:30;225.35;;;22.83;;
54037;SDS011;39954;48.844;9.726;2024-01-15T04:01:35;152.88;;;19.55;;
54037;SDS011;39954;48.844;9.726;2024-01-15T04:02:38;157.93;;;18.73;;
54037;SDS011;39954;48.844;9.726;2024-01-15T04:03:42;168.38;;;18.50;;
54037;SDS011;39954;48.844;9.726;2024-01-15T04:04:45;176.85;;;21.13;;
54037;SDS011;39954;48.844;9.726;2024-01-15T04:05:50;224.02;;;22.55;;
54037;SDS011;39954;48.844;9.726;2024-01-15T04:06:52;245.52;;;24.38;;
54037;SDS011;39954;48.844;9.726;2024-01-15T04:07:57;207.98;;;21.00;;
54037;SDS011;39954;48.844;9.726;2024-01-15T04:08:59;230.50;;;23.60;;
54037;SDS011;39954;48.844;9.726;2024-01-15T04:10:04;205.57;;;22.08;;
54037;SDS011;39954;48.844;9.726;2024-01-15T04:11:07;139.70;;;17.65;;
54037;SDS011;39954;48.844;9.726;2024-01-15T04:12:12;173.48;;;20.40;;
54037;SDS011;39954;48.844;9.726;2024-01-15T04:13:14;176.27;;;20.75;;
54037;SDS011;39954;48.844;9.726;2024-01-15T04:14:19;196.60;;;21.33;;
54037;SDS011;39954;48.844;9.726;2024-01-15T04:15:24;170.88;;;20.60;;
54037;SDS011;39954;48.844;9.726;2024-01-15T04:16:29;198.00;;;20.67;;
54037;SDS011;39954;48.844;9.726;2024-01-15T04:17:34;184.48;;;20.75;;
54037;SDS011;39954;48.844;9.726;2024-01-15T04:18:39;146.45;;;18.23;;
54037;SDS011;39954;48.844;9.726;2024-01-15T04:19:43;186.63;;;20.17;;
54037;SDS011;39954;48.844;9.726;2024-01-15T04:20:49;186.65;;;21.35;;
54037;SDS011;39954;48.844;9.726;2024-01-15T04:21:52;239.95;;;23.83;;
54037;SDS011;39954;48.844;9.726;2024-01-15T04:22:56;242.75;;;24.60;;
54037;SDS011;39954;48.844;9.726;2024-01-15T04:23:59;261.38;;;26.00;;
54037;SDS011;39954;48.844;9.726;2024-01-15T04:25:04;247.35;;;24.23;;
54037;SDS011;39954;48.844;9.726;2024-01-15T04:26:07;169.45;;;18.90;;
54037;SDS011;39954;48.844;9.726;2024-01-15T04:27:12;202.45;;;21.77;;
54037;SDS011;39954;48.844;9.726;2024-01-15T04:28:14;156.00;;;18.50;;
54037;SDS011;39954;48.844;9.726;2024-01-15T04:29:17;168.75;;;18.73;;
54037;SDS011;39954;48.844;9.726;2024-01-15T04:30:24;169.80;;;19.90;;
54037;SDS011;39954;48.844;9.726;2024-01-15T04:31:27;131.75;;;18.13;;
54037;SDS011;39954;48.844;9.726;2024-01-15T04:32:32;179.98;;;19.17;;
54037;SDS011;39954;48.844;9.726;2024-01-15T04:33:34;213.48;;;21.90;;
54037;SDS011;39954;48.844;9.726;2024-01-15T04:34:39;183.18;;;20.42;;
54037;SDS011;39954;48.844;9.726;2024-01-15T04:35:42;160.75;;;18.92;;
54037;SDS011;39954;48.844;9.726;2024-01-15T04:36:46;168.80;;;19.40;;
54037;SDS011;39954;48.844;9.726;2024-01-15T04:37:51;257.38;;;25.45;;
54037;SDS011;39954;48.844;9.726;2024-01-15T04:38:54;239.82;;;23.15;;
54037;SDS011;39954;48.844;9.726;2024-01-15T04:39:59;222.98;;;22.13;;
54037;SDS011;39954;48.844;9.726;2024-01-15T04:41:02;475.60;;;39.60;;
54037;SDS011;39954;48.844;9.726;2024-01-15T04:42:06;256.40;;;25.25;;
54037;SDS011;39954;48.844;9.726;2024-01-15T04:43:09;170.75;;;19.33;;
54037;SDS011;39954;48.844;9.726;2024-01-15T04:44:13;227.80;;;22.75;;
54037;SDS011;39954;48.844;9.726;2024-01-15T04:45:16;177.63;;;20.20;;
54037;SDS011;39954;48.844;9.726;2024-01-15T04:46:27;167.65;;;18.45;;
54037;SDS011;39954;48.844;9.726;2024-01-15T04:47:30;293.85;;;26.55;;
54037;SDS011;39954;48.844;9.726;2024-01-15T04:48:35;297.48;;;25.58;;
54037;SDS011;39954;48.844;9.726;2024-01-15T04:49:38;251.57;;;24.83;;
54037;SDS011;39954;48.844;9.726;2024-01-15T04:50:43;173.25;;;19.13;;
54037;SDS011;39954;48.844;9.726;2024-01-15T04:51:45;174.82;;;18.98;;
54037;SDS011;39954;48.844;9.726;2024-01-15T04:52:50;276.45;;;25.58;;
54037;SDS011;39954;48.844;9.726;2024-01-15T04:53:52;251.77;;;25.20;;
54037;SDS011;39954;48.844;9.726;2024-01-15T04:54:57;219.90;;;22.42;;
54037;SDS011;39954;48.844;9.726;2024-01-15T04:56:00;296.40;;;26.20;;
54037;SDS011;39954;48.844;9.726;2024-01-15T04:57:05;263.02;;;24.90;;
54037;SDS011;39954;48.844;9.726;2024-01-15T04:58:09;278.77;;;26.65;;
54037;SDS011;39954;48.844;9.726;2024-01-15T04:59:14;281.98;;;26.95;;
54037;SDS011;39954;48.844;9.726;2024-01-15T05:00:17;181.63;;;20.90;;
54037;SDS011;39954;48.844;9.726;2024-01-15T05:01:22;178.95;;;19.60;;
54037;SDS011;39954;48.844;9.726;2024-01-15T05:02:26;232.90;;;24.27;;
54037;SDS011;39954;48.844;9.726;2024-01-15T05:03:32;194.10;;;20.85;;
54037;SDS011;39954;48.844;9.726;2024-01-15T05:04:34;188.82;;;20.67;;
54037;SDS011;39954;48.844;9.726;2024-01-15T05:05:39;338.98;;;30.50;;
54037;SDS011;39954;48.844;9.726;2024-01-15T05:06:41;166.30;;;18.83;;
54037;SDS011;39954;48.844;9.726;2024-01-15T05:07:46;148.73;;;17.48;;
54037;SDS011;39954;48.844;9.726;2024-01-15T05:08:48;171.30;;;18.98;;
54037;SDS011;39954;48.844;9.726;2024-01-15T05:09:53;200.40;;;22.08;;
54037;SDS011;39954;48.844;9.726;2024-01-15T05:10:55;202.25;;;22.02;;
54037;SDS011;39954;48.844;9.726;2024-01-15T05:12:00;234.80;;;23.52;;
54037;SDS011;39954;48.844;9.726;2024-01-15T05:13:02;217.93;;;21.30;;
54037;SDS011;39954;48.844;9.726;2024-01-15T05:14:08;219.70;;;23.60;;
54037;SDS011;39954;48.844;9.726;2024-01-15T05:15:10;214.55;;;21.58;;
54037;SDS011;39954;48.844;9.726;2024-01-15T05:16:13;170.27;;;19.85;;
54037;SDS011;39954;48.844;9.726;2024-01-15T05:17:18;171.93;;;19.10;;
54037;SDS011;39954;48.844;9.726;2024-01-15T05:18:23;220.63;;;23.48;;
54037;SDS011;39954;48.844;9.726;2024-01-15T05:19:28;173.40;;;19.52;;
54037;SDS011;39954;48.844;9.726;2024-01-15T05:20:30;177.18;;;19.33;;
54037;SDS011;39954;48.844;9.726;2024-01-15T05:21:37;248.85;;;25.52;;
54037;SDS011;39954;48.844;9.726;2024-01-15T05:22:39;249.77;;;23.92;;
54037;SDS011;39954;48.844;9.726;2024-01-15T05:23:42;205.70;;;22.85;;
54037;SDS011;39954;48.844;9.726;2024-01-15T05:24:46;220.15;;;23.85;;
54037;SDS011;39954;48.844;9.726;2024-01-15T05:25:49;227.98;;;24.17;;
54037;SDS011;39954;48.844;9.726;2024-01-15T05:26:54;191.20;;;21.17;;
54037;SDS011;39954;48.844;9.726;2024-01-15T05:27:56;190.75;;;22.05;;
54037;SDS011;39954;48.844;9.726;2024-01-15T05:28:59;286.75;;;26.52;;
54037;SDS011;39954;48.844;9.726;2024-01-15T05:30:04;236.45;;;25.30;;
54037;SDS011;39954;48.844;9.726;2024-01-15T05:31:07;257.02;;;24.95;;
54037;SDS011;39954;48.844;9.726;2024-01-15T05:32:13;190.35;;;20.63;;
54037;SDS011;39954;48.844;9.726;2024-01-15T05:33:15;177.05;;;19.98;;
54037;SDS011;39954;48.844;9.726;2024-01-15T05:34:20;148.63;;;19.42;;
54037;SDS011;39954;48.844;9.726;2024-01-15T05:35:25;136.82;;;17.15;;
54037;SDS011;39954;48.844;9.726;2024-01-15T05:36:27;174.77;;;20.60;;
54037;SDS011;39954;48.844;9.726;2024-01-15T05:37:32;204.57;;;22.33;;
54037;SDS011;39954;48.844;9.726;2024-01-15T05:38:36;207.85;;;21.90;;
54037;SDS011;39954;48.844;9.726;2024-01-15T05:39:41;196.68;;;21.58;;
54037;SDS011;39954;48.844;9.726;2024-01-15T05:40:43;174.88;;;18.55;;
54037;SDS011;39954;48.844;9.726;2024-01-15T05:41:48;189.75;;;20.50;;
54037;SDS011;39954;48.844;9.726;2024-01-15T05:42:50;205.23;;;23.20;;
54037;SDS011;39954;48.844;9.726;2024-01-15T05:43:55;170.55;;;19.00;;
54037;SDS011;39954;48.844;9.726;2024-01-15T05:44:58;183.02;;;21.27;;
54037;SDS011;39954;48.844;9.726;2024-01-15T05:46:01;257.55;;;25.95;;
54037;SDS011;39954;48.844;9.726;2024-01-15T05:47:08;252.25;;;26.48;;
54037;SDS011;39954;48.844;9.726;2024-01-15T05:48:10;254.60;;;23.85;;
54037;SDS011;39954;48.844;9.726;2024-01-15T05:49:15;277.55;;;26.05;;
54037;SDS011;39954;48.844;9.726;2024-01-15T05:50:22;201.70;;;25.60;;
54037;SDS011;39954;48.844;9.726;2024-01-15T05:51:27;330.33;;;38.58;;
54037;SDS011;39954;48.844;9.726;2024-01-15T05:52:29;244.68;;;23.27;;
54037;SDS011;39954;48.844;9.726;2024-01-15T05:53:34;180.10;;;20.45;;
54037;SDS011;39954;48.844;9.726;2024-01-15T05:54:36;391.65;;;33.38;;
54037;SDS011;39954;48.844;9.726;2024-01-15T05:55:41;199.52;;;21.10;;
54037;SDS011;39954;48.844;9.726;2024-01-15T05:56:43;234.10;;;22.80;;
54037;SDS011;39954;48.844;9.726;2024-01-15T05:57:48;352.25;;;32.25;;
54037;SDS011;39954;48.844;9.726;2024-01-15T05:58:50;204.50;;;21.50;;
54037;SDS011;39954;48.844;9.726;2024-01-15T05:59:56;173.82;;;19.63;;
54037;SDS011;39954;48.844;9.726;2024-01-15T06:00:58;201.07;;;21.92;;
54037;SDS011;39954;48.844;9.726;2024-01-15T06:02:03;271.27;;;26.30;;
54037;SDS011;39954;48.844;9.726;2024-01-15T06:03:05;280.67;;;25.92;;
54037;SDS011;39954;48.844;9.726;2024-01-15T06:04:10;259.30;;;23.23;;
54037;SDS011;39954;48.844;9.726;2024-01-15T06:05:15;292.60;;;26.98;;
54037;SDS011;39954;48.844;9.726;2024-01-15T06:06:20;352.00;;;29.85;;
54037;SDS011;39954;48.844;9.726;2024-01-15T06:07:24;229.38;;;21.23;;
54037;SDS011;39954;48.844;9.726;2024-01-15T06:08:29;243.55;;;23.88;;